ADDS METAR Data INFO
IDs: Format: Raw Decoded Include TAF

Data at: 1730 UTC 21 Sep 2017

KTME 211715Z AUTO 16004KT 10SM FEW032 32/24 A2997 RMK AO2
KTME 211655Z AUTO 19005KT 10SM FEW030 SCT035 32/24 A2998 RMK AO2
KTME 211635Z AUTO 20004KT 10SM SCT028 SCT035 31/24 A2998 RMK AO2
KTME 211615Z AUTO 16005KT 10SM SCT024 31/24 A2999 RMK AO2
KTME 211555Z AUTO 16007KT 10SM FEW022 30/24 A2999 RMK AO2
KTME 211535Z AUTO 19006KT 10SM FEW019 FEW025 29/25 A2999 RMK AO2
KTME 211515Z AUTO 19008KT 10SM FEW017 SCT025 BKN035 29/25 A2999 RMK AO2
KTME 211455Z AUTO 16006KT 9SM SCT015 BKN025 BKN033 29/25 A2999 RMK AO2
KTME 211435Z AUTO 17006KT 8SM SCT013 28/25 A2999 RMK AO2
KTME 211415Z AUTO 15007KT 7SM SCT013 SCT021 28/26 A2999 RMK AO2
KTME 211355Z AUTO 15004KT 6SM BR FEW019 27/26 A2998 RMK AO2
KTME 211335Z AUTO 13005KT 5SM BR FEW017 26/26 A2998 RMK AO2
KTME 211315Z AUTO 00000KT 2SM BR CLR 25/25 A2998 RMK AO2
KTME 211255Z AUTO 00000KT 1 1/2SM BR CLR 24/24 A2997 RMK AO2
KTME 211235Z AUTO 09003KT 1/2SM FG VV005 24/24 A2997 RMK AO2
KTME 211215Z AUTO 00000KT 3SM BR CLR 24/24 A2996 RMK AO2
KTME 211155Z AUTO 00000KT 4SM BR CLR 24/24 A2996 RMK AO2
KTME 211135Z AUTO 00000KT 4SM BR CLR 25/24 A2996 RMK AO2
KTME 211115Z AUTO 17003KT 5SM BR CLR 24/24 A2995 RMK AO2
KTME 211055Z AUTO 17004KT 5SM BR CLR 25/24 A2994 RMK AO2
KTME 211035Z AUTO 18003KT 5SM BR CLR 25/24 A2994 RMK AO2
KTME 211015Z AUTO 16003KT 5SM BR CLR 25/24 A2994 RMK AO2
KTME 210955Z AUTO 16003KT 5SM BR CLR 25/24 A2994 RMK AO2
KTME 210935Z AUTO 16003KT 5SM BR CLR 25/25 A2994 RMK AO2
KTME 210915Z AUTO 15004KT 5SM BR CLR 25/25 A2994 RMK AO2
KTME 210855Z AUTO 14005KT 5SM BR CLR 25/25 A2994 RMK AO2
KTME 210835Z AUTO 15003KT 6SM BR CLR 25/25 A2994 RMK AO2
KTME 210815Z AUTO 15005KT 7SM CLR 25/25 A2994 RMK AO2
KTME 210755Z AUTO 15004KT 7SM CLR 25/25 A2995 RMK AO2
KTME 210735Z AUTO 15005KT 8SM CLR 25/25 A2995 RMK AO2
KTME 210715Z AUTO 15006KT 8SM CLR 25/25 A2996 RMK AO2
KTME 210655Z AUTO 14005KT 9SM CLR 25/25 A2996 RMK AO2
KTME 210635Z AUTO 15006KT 9SM CLR 25/25 A2996 RMK AO2
KTME 210615Z AUTO 15006KT 10SM CLR 26/25 A2996 RMK AO2
KTME 210555Z AUTO 15005KT 10SM CLR 26/25 A2996 RMK AO2
KTME 210535Z AUTO 16005KT 9SM CLR 26/25 A2996 RMK AO2
KTME 210515Z AUTO 16006KT 9SM CLR 26/25 A2997 RMK AO2
KTME 210455Z AUTO 15005KT 10SM CLR 26/25 A2997 RMK AO2
KTME 210435Z AUTO 15005KT 10SM SCT015 26/25 A2997 RMK AO2
KTME 210415Z AUTO 14007KT 10SM SCT013 26/25 A2997 RMK AO2
KTME 210355Z AUTO 15006KT 10SM CLR 27/25 A2996 RMK AO2
KTME 210335Z AUTO 15007KT 10SM CLR 27/25 A2996 RMK AO2
KTME 210315Z AUTO 15006KT 10SM CLR 27/25 A2995 RMK AO2
KTME 210255Z AUTO 16006KT 10SM CLR 27/25 A2994 RMK AO2
KTME 210235Z AUTO 16006KT 10SM CLR 27/24 A2994 RMK AO2
KTME 210215Z AUTO 17005KT 10SM CLR 27/24 A2993 RMK AO2
KTME 210155Z AUTO 17006KT 10SM CLR 27/24 A2992 RMK AO2
KTME 210135Z AUTO 17006KT 10SM CLR 28/24 A2991 RMK AO2
KTME 210115Z AUTO 17004KT 10SM SCT032 27/25 A2990 RMK AO2
KTME 210055Z AUTO 15003KT 10SM SCT034 BKN042 28/25 A2990 RMK AO2
KTME 210035Z AUTO 15005KT 10SM FEW040 28/25 A2989 RMK AO2
KTME 210015Z AUTO 14005KT 10SM SCT041 SCT050 29/25 A2988 RMK AO2
KTME 202355Z AUTO 13010KT 9SM BKN041 BKN049 29/25 A2989 RMK AO2
KTME 202335Z AUTO 12009KT 10SM FEW042 SCT048 SCT050 30/25 A2989 RMK AO2
KTME 202315Z AUTO 13010G14KT 10SM CLR 32/24 A2988 RMK AO2
KTME 202255Z AUTO 19011KT 10SM CLR 33/24 A2988 RMK AO2
KTME 202235Z AUTO 20010KT 10SM SCT038 SCT046 33/24 A2987 RMK AO2
KTME 202215Z AUTO 19009KT 10SM BKN040 BKN049 33/24 A2987 RMK AO2
KTME 202155Z AUTO 17011KT 10SM FEW044 FEW050 SCT065 33/24 A2987 RMK AO2
KTME 202135Z AUTO 18010G15KT 10SM FEW046 33/24 A2987 RMK AO2
KTME 202115Z AUTO 19008KT 10SM 33/23 A2988 RMK AO2
KTME 202055Z AUTO 18011KT 10SM FEW046 34/24 A2988 RMK AO2
KTME 202035Z AUTO 20009G15KT 10SM 35/24 A2988 RMK AO2
KTME 201955Z AUTO 21009KT CLR 33/23 A2990 RMK AO2
KTME 201935Z AUTO 20010G16KT FEW047 SCT060 34/23 A2990 RMK AO2
KTME 201915Z AUTO 18008G15KT FEW060 34/23 A2991 RMK AO2
KTME 201855Z AUTO 5SM HZ CLR 34/24 A2992 RMK AO2
KTME 201835Z AUTO 19008G15KT 5SM HZ FEW047 34/24 A2993 RMK AO2
KTME 201815Z AUTO 20009KT 5SM HZ FEW040 32/24 A2994 RMK AO2
KTME 201755Z AUTO 18010G16KT 5SM HZ SCT038 SCT047 BKN055 32/23 A2995 RMK AO2
KTME 201735Z AUTO 19010KT 5SM HZ SCT034 BKN046 BKN055 33/23 A2996 RMK AO2
KTME 201715Z AUTO 22008KT 5SM HZ SCT032 SCT050 31/24 A2996 RMK AO2
KTME 201655Z AUTO 18010KT 5SM HZ FEW029 32/24 A2997 RMK AO2
KTME 201635Z AUTO 19010G16KT 5SM HZ SCT027 SCT035 BKN045 32/24 A2997 RMK AO2
KTME 201615Z AUTO 17008KT 5SM HZ SCT023 SCT029 SCT037 31/25 A2998 RMK AO2
KTME 201555Z AUTO 20009KT 4SM HZ SCT023 BKN031 31/25 A2998 RMK AO2
KTME 201535Z AUTO 20011KT 4SM HZ FEW021 30/24 A2997 RMK AO2
KTME 201515Z AUTO 19014KT 4SM HZ SCT018 SCT025 29/25 A2997 RMK AO2
KTME 201455Z AUTO 19011KT 4SM HZ SCT018 29/25 A2997 RMK AO2
KTME 201435Z AUTO 18008KT 4SM HZ CLR 28/25 A2997 RMK AO2
KTME 201415Z AUTO 19007KT 3SM BR CLR 28/25 A2996 RMK AO2
KTME 201355Z AUTO 18008KT 3SM BR FEW018 27/25 A2996 RMK AO2
KTME 201335Z AUTO 17006KT 2 1/2SM BR FEW018 26/25 A2995 RMK AO2
KTME 201315Z AUTO 16004KT 2SM BR CLR 25/25 A2995 RMK AO2
KTME 201255Z AUTO 14004KT 1 1/2SM BR CLR 25/25 A2995 RMK AO2
KTME 201235Z AUTO 00000KT 1SM BR CLR 24/24 A2995 RMK AO2
KTME 201215Z AUTO 15003KT 2SM BR CLR 24/24 A2995 RMK AO2
KTME 201155Z AUTO 15003KT 2 1/2SM BR CLR 24/24 A2994 RMK AO2
KTME 201135Z AUTO 14003KT 2SM BR SCT024 24/24 A2994 RMK AO2
KTME 201115Z AUTO 00000KT 2 1/2SM BR CLR 24/24 A2993 RMK AO2
KTME 201055Z AUTO 17004KT 3SM BR CLR 25/24 A2993 RMK AO2
KTME 201035Z AUTO 17005KT 2 1/2SM BR CLR 25/24 A2992 RMK AO2
KTME 201015Z AUTO 18005KT 3SM BR CLR 25/24 A2992 RMK AO2
KTME 200955Z AUTO 17004KT 3SM BR CLR 25/24 A2991 RMK AO2
KTME 200935Z AUTO 17004KT 3SM BR CLR 25/24 A2991 RMK AO2
KTME 200915Z AUTO 17006KT 3SM BR SCT015 25/24 A2990 RMK AO2
KTME 200855Z AUTO 18004KT 3SM BR FEW018 25/24 A2991 RMK AO2
KTME 200835Z AUTO 18005KT 4SM BR CLR 25/24 A2991 RMK AO2
KTME 200815Z AUTO 18006KT 4SM BR CLR 25/25 A2991 RMK AO2
KTME 200755Z AUTO 18006KT 4SM BR CLR 25/25 A2991 RMK AO2
KTME 200735Z AUTO 17006KT 4SM BR CLR 25/25 A2991 RMK AO2
KTME 200715Z AUTO 18004KT 5SM BR CLR 25/24 A2992 RMK AO2
KTME 200655Z AUTO 18003KT 5SM BR CLR 25/24 A2992 RMK AO2
KTME 200635Z AUTO 17006KT 5SM BR CLR 26/25 A2991 RMK AO2
KTME 200615Z AUTO 15007KT 5SM BR CLR 26/25 A2990 RMK AO2
KTME 200555Z AUTO 17007KT 5SM BR CLR 26/24 A2990 RMK AO2
KTME 200535Z AUTO 16007KT 5SM BR CLR 25/24 A2990 RMK AO2